createdAt,value
2018-07-22T00:00:36.504Z,23.10
2018-07-22T00:03:05.173Z,23.09
2018-07-22T00:05:34.144Z,23.08
2018-07-22T00:08:02.846Z,23.07
2018-07-22T00:10:31.758Z,23.07
2018-07-22T00:13:01.016Z,23.02
2018-07-22T00:15:29.992Z,22.97
2018-07-22T00:17:58.755Z,22.95
2018-07-22T00:20:28.201Z,22.84
2018-07-22T00:22:56.881Z,22.82
2018-07-22T00:25:25.525Z,22.83
2018-07-22T00:27:54.488Z,22.81
2018-07-22T00:30:23.163Z,22.79
2018-07-22T00:32:51.920Z,22.77
2018-07-22T00:35:20.726Z,22.74
2018-07-22T00:37:49.400Z,22.73
2018-07-22T00:40:19.111Z,22.68
2018-07-22T00:42:47.838Z,22.61
2018-07-22T00:45:16.625Z,22.58
2018-07-22T00:47:45.315Z,22.58
2018-07-22T00:50:13.995Z,22.60
2018-07-22T00:52:42.673Z,22.64
2018-07-22T00:55:11.674Z,22.67
2018-07-22T00:57:47.093Z,22.68
2018-07-22T01:00:15.954Z,22.69
2018-07-22T01:02:44.646Z,22.69
2018-07-22T01:05:13.684Z,22.67
2018-07-22T01:07:42.325Z,22.66
2018-07-22T01:10:11.068Z,22.62
2018-07-22T01:12:39.757Z,22.62
2018-07-22T01:15:08.540Z,22.57
2018-07-22T01:17:37.553Z,22.49
2018-07-22T01:20:07.114Z,22.47
2018-07-22T01:22:36.105Z,22.49
2018-07-22T01:25:04.827Z,22.50
2018-07-22T01:27:33.587Z,22.49
2018-07-22T01:30:02.399Z,22.43
2018-07-22T01:32:31.162Z,22.43
2018-07-22T01:35:00.668Z,22.32
2018-07-22T01:37:29.629Z,22.20
2018-07-22T01:39:58.322Z,22.13
2018-07-22T01:42:27.753Z,22.06
2018-07-22T01:44:56.738Z,21.95
2018-07-22T01:47:25.417Z,21.85
2018-07-22T01:49:54.139Z,21.82
2018-07-22T01:52:22.873Z,21.77
2018-07-22T01:54:51.556Z,21.77
2018-07-22T01:57:20.164Z,21.78
2018-07-22T01:59:48.909Z,21.83
2018-07-22T02:02:17.568Z,21.89
2018-07-22T02:04:46.202Z,21.92
2018-07-22T02:07:15.318Z,21.83
2018-07-22T02:09:44.177Z,21.73
2018-07-22T02:12:12.824Z,21.63
2018-07-22T02:14:41.957Z,21.63
2018-07-22T02:17:11.156Z,21.63
2018-07-22T02:19:39.839Z,21.52
2018-07-22T02:22:08.546Z,21.49
2018-07-22T02:24:37.216Z,21.48
2018-07-22T02:27:07.514Z,21.48
2018-07-22T02:29:36.167Z,21.50
2018-07-22T02:32:04.878Z,21.57
2018-07-22T02:34:33.804Z,21.60
2018-07-22T02:37:02.810Z,21.65
2018-07-22T02:39:31.798Z,21.65
2018-07-22T02:42:00.530Z,21.62
2018-07-22T02:44:29.226Z,21.53
2018-07-22T02:46:58.015Z,21.37
2018-07-22T02:49:26.716Z,21.33
2018-07-22T02:51:55.357Z,21.27
2018-07-22T02:54:24.287Z,21.22
2018-07-22T02:56:53.310Z,21.17
2018-07-22T02:59:22.306Z,21.15
2018-07-22T03:01:50.925Z,21.17
2018-07-22T03:04:19.635Z,21.17
2018-07-22T03:06:48.409Z,21.20
2018-07-22T03:09:17.119Z,21.18
2018-07-22T03:11:46.164Z,21.12
2018-07-22T03:14:14.792Z,21.11
2018-07-22T03:16:43.512Z,21.18
2018-07-22T03:19:12.264Z,21.24
2018-07-22T03:21:40.983Z,21.23
2018-07-22T03:24:09.848Z,21.18
2018-07-22T03:26:38.592Z,21.19
2018-07-22T03:29:08.068Z,21.25
2018-07-22T03:31:36.726Z,21.32
2018-07-22T03:34:05.515Z,21.38
2018-07-22T03:36:34.272Z,21.36
2018-07-22T03:39:03.026Z,21.27
2018-07-22T03:41:31.948Z,21.16
2018-07-22T03:44:01.350Z,21.14
2018-07-22T03:46:30.037Z,21.20
2018-07-22T03:48:58.992Z,21.23
2018-07-22T03:51:28.343Z,21.23
2018-07-22T03:53:57.005Z,21.20
2018-07-22T03:56:25.665Z,21.17
2018-07-22T03:58:54.355Z,21.16
2018-07-22T04:01:23.017Z,21.22
2018-07-22T04:03:51.722Z,21.30
2018-07-22T04:06:20.438Z,21.36
2018-07-22T04:08:49.146Z,21.40
2018-07-22T04:11:18.453Z,21.45
2018-07-22T04:13:47.161Z,21.47
2018-07-22T04:16:15.814Z,21.48
2018-07-22T04:18:52.387Z,21.47
2018-07-22T04:21:22.375Z,21.41
2018-07-22T04:23:51.462Z,21.41
2018-07-22T04:26:21.138Z,21.39
2018-07-22T04:28:51.357Z,21.37
2018-07-22T04:31:20.328Z,21.35
2018-07-22T04:33:49.470Z,21.36
2018-07-22T04:36:18.414Z,21.37
2018-07-22T04:38:47.084Z,21.44
2018-07-22T04:41:15.813Z,21.50
2018-07-22T04:43:44.784Z,21.56
2018-07-22T04:46:13.743Z,21.61
2018-07-22T04:48:42.776Z,21.66
2018-07-22T04:51:11.472Z,21.72
2018-07-22T04:53:40.223Z,21.77
2018-07-22T04:56:09.535Z,21.82
2018-07-22T04:58:38.462Z,21.86
2018-07-22T05:01:07.168Z,21.93
2018-07-22T05:03:36.133Z,21.97
2018-07-22T05:06:04.776Z,21.98
2018-07-22T05:08:33.711Z,22.01
2018-07-22T05:11:02.803Z,22.05
2018-07-22T05:13:31.981Z,22.08
2018-07-22T05:16:00.936Z,22.12
2018-07-22T05:18:29.861Z,22.13
2018-07-22T05:20:58.531Z,22.16
2018-07-22T05:23:27.595Z,22.19
2018-07-22T05:25:56.364Z,22.23
2018-07-22T05:28:25.379Z,22.25
2018-07-22T05:30:54.658Z,22.27
2018-07-22T05:33:23.545Z,22.31
2018-07-22T05:35:52.612Z,22.36
2018-07-22T05:38:21.631Z,22.41
2018-07-22T05:40:50.694Z,22.41
2018-07-22T05:43:19.735Z,22.42
2018-07-22T05:45:48.488Z,22.46
2018-07-22T05:48:17.170Z,22.53
2018-07-22T05:50:45.812Z,22.56
2018-07-22T05:53:14.437Z,22.57
2018-07-22T05:55:43.059Z,22.64
2018-07-22T05:58:12.030Z,22.68
2018-07-22T06:00:41.429Z,22.70
2018-07-22T06:03:10.294Z,22.67
2018-07-22T06:05:39.181Z,22.73
2018-07-22T06:08:07.850Z,22.73
2018-07-22T06:10:36.844Z,22.70
2018-07-22T06:13:05.610Z,22.70
2018-07-22T06:15:34.498Z,22.75
2018-07-22T06:18:03.497Z,22.78
2018-07-22T06:20:32.509Z,22.80
2018-07-22T06:23:01.200Z,22.80
2018-07-22T06:25:30.170Z,22.82
2018-07-22T06:27:59.450Z,22.83
2018-07-22T06:30:28.459Z,22.82
2018-07-22T06:32:57.459Z,22.86
2018-07-22T06:35:26.112Z,22.90
2018-07-22T06:37:54.789Z,22.92
2018-07-22T06:40:23.427Z,22.96
2018-07-22T06:42:52.422Z,23.01
2018-07-22T06:45:22.023Z,23.05
2018-07-22T06:47:50.743Z,23.13
2018-07-22T06:50:19.619Z,23.12
2018-07-22T06:52:48.266Z,23.11
2018-07-22T06:55:16.918Z,23.19
2018-07-22T06:57:47.558Z,23.31
2018-07-22T07:00:16.261Z,23.46
2018-07-22T07:02:44.990Z,23.58
2018-07-22T07:05:13.749Z,23.73
2018-07-22T07:07:42.394Z,23.87
2018-07-22T07:10:11.663Z,24.02
2018-07-22T07:12:40.960Z,23.95
2018-07-22T07:15:09.787Z,23.99
2018-07-22T07:17:38.841Z,24.08
2018-07-22T07:20:07.674Z,24.09
2018-07-22T07:22:36.435Z,24.19
2018-07-22T07:25:06.310Z,24.29
2018-07-22T07:27:35.302Z,24.37
2018-07-22T07:30:05.707Z,24.41
2018-07-22T07:32:34.746Z,24.52
2018-07-22T07:35:03.402Z,24.70
2018-07-22T07:37:32.401Z,24.87
2018-07-22T07:40:01.440Z,25.02
2018-07-22T07:42:30.136Z,25.14
2018-07-22T07:44:59.478Z,25.24
2018-07-22T07:47:29.099Z,25.23
2018-07-22T07:49:57.790Z,25.24
2018-07-22T07:52:28.133Z,25.21
2018-07-22T07:54:57.241Z,25.16
2018-07-22T07:57:27.216Z,25.16
2018-07-22T07:59:56.011Z,25.22
2018-07-22T08:02:26.150Z,25.26
2018-07-22T08:04:55.479Z,25.35
2018-07-22T08:07:24.274Z,25.37
2018-07-22T08:09:53.359Z,25.43
2018-07-22T08:12:22.566Z,25.49
2018-07-22T08:14:51.858Z,25.49
2018-07-22T08:17:20.945Z,25.73
2018-07-22T08:19:50.056Z,25.98
2018-07-22T08:22:18.967Z,26.17
2018-07-22T08:24:47.636Z,26.47
2018-07-22T08:27:16.447Z,26.73
2018-07-22T08:29:45.509Z,26.98
2018-07-22T08:32:14.187Z,27.20
2018-07-22T08:34:42.925Z,27.24
2018-07-22T08:37:12.921Z,27.45
2018-07-22T08:39:43.831Z,27.80
2018-07-22T08:42:13.978Z,28.18
2018-07-22T08:44:46.557Z,28.47
2018-07-22T08:47:16.583Z,28.90
2018-07-22T08:49:45.744Z,29.33
2018-07-22T08:52:14.493Z,29.64
2018-07-22T08:54:44.505Z,29.92
2018-07-22T08:57:15.762Z,29.93
2018-07-22T08:59:45.045Z,29.73
2018-07-22T09:02:15.599Z,29.56
2018-07-22T09:04:44.690Z,29.53
2018-07-22T09:07:13.472Z,29.20
2018-07-22T09:09:51.550Z,28.66
2018-07-22T09:12:20.631Z,28.66
2018-07-22T09:14:50.572Z,28.82
2018-07-22T09:17:19.509Z,28.77
2018-07-22T09:19:48.583Z,28.73
2018-07-22T09:22:20.065Z,28.87
2018-07-22T09:24:49.042Z,29.03
2018-07-22T09:27:18.828Z,29.21
2018-07-22T09:29:48.742Z,29.10
2018-07-22T09:32:22.367Z,29.21
2018-07-22T09:34:52.118Z,29.27
2018-07-22T09:37:20.874Z,29.25
2018-07-22T09:39:51.743Z,29.03
2018-07-22T09:42:23.346Z,28.73
2018-07-22T09:44:55.250Z,28.56
2018-07-22T09:47:31.314Z,28.48
2018-07-22T09:50:01.236Z,28.39
2018-07-22T09:52:31.723Z,28.31
2018-07-22T09:55:07.344Z,28.34
2018-07-22T09:57:42.597Z,28.42
2018-07-22T10:00:14.438Z,28.57
2018-07-22T10:02:44.824Z,28.66
2018-07-22T10:05:16.057Z,28.76
2018-07-22T10:07:46.039Z,28.91
2018-07-22T10:10:14.994Z,28.86
2018-07-22T10:12:44.767Z,28.88
2018-07-22T10:15:14.059Z,28.91
2018-07-22T10:17:43.726Z,28.66
2018-07-22T10:20:13.668Z,28.81
2018-07-22T10:22:42.447Z,28.90
2018-07-22T10:25:11.269Z,29.00
2018-07-22T10:27:41.101Z,29.01
2018-07-22T10:30:10.059Z,29.05
2018-07-22T10:32:38.753Z,29.07
2018-07-22T10:35:07.737Z,29.09
2018-07-22T10:37:36.857Z,28.99
2018-07-22T10:40:05.604Z,28.82
2018-07-22T10:42:34.545Z,28.72
2018-07-22T10:45:03.159Z,28.81
2018-07-22T10:47:31.806Z,28.74
2018-07-22T10:50:00.490Z,28.63
2018-07-22T10:52:29.467Z,28.63
2018-07-22T10:54:58.088Z,28.63
2018-07-22T10:57:27.048Z,28.60
2018-07-22T10:59:56.194Z,28.58
2018-07-22T11:02:25.186Z,28.58
2018-07-22T11:04:54.419Z,28.61
2018-07-22T11:07:23.836Z,28.64
2018-07-22T11:09:53.603Z,28.55
2018-07-22T11:12:23.588Z,28.55
2018-07-22T11:14:52.709Z,28.70
2018-07-22T11:17:21.308Z,28.81
2018-07-22T11:19:49.950Z,28.88
2018-07-22T11:22:18.608Z,28.90
2018-07-22T11:24:47.521Z,29.00
2018-07-22T11:27:17.473Z,29.01
2018-07-22T11:29:46.365Z,28.86
2018-07-22T11:32:15.014Z,28.90
2018-07-22T11:34:43.884Z,28.62
2018-07-22T11:37:12.529Z,28.64
2018-07-22T11:39:41.173Z,28.71
2018-07-22T11:42:10.509Z,28.74
2018-07-22T11:44:39.176Z,28.70
2018-07-22T11:47:08.164Z,28.73
2018-07-22T11:49:37.239Z,28.81
2018-07-22T11:52:06.013Z,28.65
2018-07-22T11:54:34.653Z,28.58
2018-07-22T11:57:03.801Z,28.04
2018-07-22T11:59:34.077Z,27.89
2018-07-22T12:02:02.812Z,27.67
2018-07-22T12:04:32.993Z,27.60
2018-07-22T12:07:02.273Z,27.67
2018-07-22T12:09:31.298Z,27.73
2018-07-22T12:12:00.629Z,27.89
2018-07-22T12:14:29.381Z,27.90
2018-07-22T12:17:01.329Z,27.97
2018-07-22T12:19:30.467Z,28.04
2018-07-22T12:21:59.529Z,28.06
2018-07-22T12:24:28.700Z,27.96
2018-07-22T12:26:57.394Z,28.10
2018-07-22T12:29:26.399Z,28.27
2018-07-22T12:31:55.195Z,28.32
2018-07-22T12:34:24.058Z,28.37
2018-07-22T12:36:52.687Z,28.35
2018-07-22T12:39:21.314Z,28.24
2018-07-22T12:41:49.937Z,28.30
2018-07-22T12:44:18.964Z,28.41
2018-07-22T12:46:47.620Z,28.40
2018-07-22T12:49:16.329Z,28.51
2018-07-22T12:51:45.118Z,28.54
2018-07-22T12:54:13.786Z,28.49
2018-07-22T12:56:42.707Z,28.51
2018-07-22T12:59:11.392Z,28.62
2018-07-22T13:01:40.112Z,28.88
2018-07-22T13:04:10.157Z,29.57
2018-07-22T13:06:38.801Z,30.30
2018-07-22T13:09:09.641Z,30.48
2018-07-22T13:11:38.808Z,30.18
2018-07-22T13:14:07.907Z,29.20
2018-07-22T13:16:36.644Z,28.67
2018-07-22T13:19:05.318Z,28.11
2018-07-22T13:21:34.255Z,27.72
2018-07-22T13:24:03.870Z,27.89
2018-07-22T13:26:32.513Z,28.32
2018-07-22T13:29:01.250Z,29.50
2018-07-22T13:31:29.936Z,31.38
2018-07-22T13:33:58.622Z,32.27
2018-07-22T13:36:27.697Z,32.30
2018-07-22T13:38:56.500Z,31.95
2018-07-22T13:41:25.502Z,31.90
2018-07-22T13:43:54.297Z,32.35
2018-07-22T13:46:23.109Z,32.48
2018-07-22T13:48:51.771Z,32.50
2018-07-22T13:51:20.529Z,33.47
2018-07-22T13:53:49.474Z,35.28
2018-07-22T13:56:18.136Z,36.45
2018-07-22T13:58:48.071Z,36.91
2018-07-22T14:01:17.042Z,36.48
2018-07-22T14:03:45.730Z,36.28
2018-07-22T14:06:14.378Z,35.71
2018-07-22T14:08:43.393Z,34.77
2018-07-22T14:11:12.034Z,34.47
2018-07-22T14:13:41.279Z,34.71
2018-07-22T14:16:09.916Z,35.53
2018-07-22T14:18:38.571Z,36.06
2018-07-22T14:21:07.229Z,37.08
2018-07-22T14:23:36.148Z,37.55
2018-07-22T14:26:05.718Z,37.73
2018-07-22T14:28:34.543Z,37.23
2018-07-22T14:31:03.586Z,37.29
2018-07-22T14:33:32.214Z,36.38
2018-07-22T14:36:00.864Z,34.84
2018-07-22T14:38:29.592Z,33.51
2018-07-22T14:40:58.656Z,32.52
2018-07-22T14:43:27.490Z,31.68
2018-07-22T14:45:56.197Z,31.00
2018-07-22T14:48:25.197Z,30.36
2018-07-22T14:50:54.224Z,29.96
2018-07-22T14:53:23.162Z,29.73
2018-07-22T14:55:52.205Z,29.44
2018-07-22T14:58:20.858Z,28.94
2018-07-22T15:00:49.524Z,28.64
2018-07-22T15:03:18.185Z,28.43
2018-07-22T15:05:46.958Z,28.30
2018-07-22T15:08:15.919Z,28.19
2018-07-22T15:10:44.567Z,28.04
2018-07-22T15:13:13.499Z,27.78
2018-07-22T15:15:42.471Z,27.75
2018-07-22T15:18:11.262Z,27.74
2018-07-22T15:20:40.001Z,27.71
2018-07-22T15:23:08.599Z,27.67
2018-07-22T15:25:37.281Z,27.49
2018-07-22T15:28:06.213Z,27.42
2018-07-22T15:30:34.861Z,27.41
2018-07-22T15:33:03.739Z,27.40
2018-07-22T15:35:32.417Z,27.40
2018-07-22T15:38:01.123Z,27.46
2018-07-22T15:40:29.836Z,27.51
2018-07-22T15:42:59.568Z,27.51
2018-07-22T15:45:28.620Z,27.43
2018-07-22T15:47:57.337Z,27.38
2018-07-22T15:50:26.065Z,27.29
2018-07-22T15:52:54.716Z,27.21
2018-07-22T15:55:25.425Z,27.15
2018-07-22T15:57:54.303Z,27.21
2018-07-22T16:00:23.095Z,27.23
2018-07-22T16:02:51.978Z,27.11
2018-07-22T16:05:20.831Z,27.09
2018-07-22T16:07:49.795Z,27.10
2018-07-22T16:10:18.997Z,27.14
2018-07-22T16:12:47.755Z,27.17
2018-07-22T16:15:16.568Z,27.13
2018-07-22T16:17:46.119Z,27.16
2018-07-22T16:20:15.421Z,27.21
2018-07-22T16:22:44.447Z,27.25
2018-07-22T16:25:13.224Z,27.29
2018-07-22T16:27:42.159Z,27.36
2018-07-22T16:30:11.304Z,27.39
2018-07-22T16:32:40.032Z,27.50
2018-07-22T16:35:09.001Z,27.57
2018-07-22T16:37:37.785Z,27.62
2018-07-22T16:40:06.809Z,27.70
2018-07-22T16:42:35.600Z,27.77
2018-07-22T16:45:04.350Z,27.75
2018-07-22T16:47:33.173Z,27.71
2018-07-22T16:50:02.002Z,27.54
2018-07-22T16:52:31.194Z,27.51
2018-07-22T16:55:01.111Z,27.46
2018-07-22T16:57:29.907Z,27.46
2018-07-22T16:59:58.925Z,27.41
2018-07-22T17:02:27.905Z,27.42
2018-07-22T17:04:56.951Z,27.38
2018-07-22T17:07:26.977Z,27.23
2018-07-22T17:09:55.836Z,27.20
2018-07-22T17:12:24.838Z,27.16
2018-07-22T17:14:54.350Z,27.10
2018-07-22T17:17:23.150Z,27.15
2018-07-22T17:19:52.385Z,27.19
2018-07-22T17:22:21.199Z,27.23
2018-07-22T17:24:49.932Z,27.29
2018-07-22T17:27:18.783Z,27.31
2018-07-22T17:29:47.956Z,27.28
2018-07-22T17:32:16.595Z,27.24
2018-07-22T17:34:45.316Z,27.21
2018-07-22T17:37:14.072Z,27.19
2018-07-22T17:39:43.518Z,27.16
2018-07-22T17:42:12.331Z,27.15
2018-07-22T17:44:41.326Z,27.12
2018-07-22T17:47:10.025Z,27.11
2018-07-22T17:49:38.918Z,27.18
2018-07-22T17:52:08.589Z,27.08
2018-07-22T17:54:37.293Z,27.02
2018-07-22T17:57:06.861Z,27.05
2018-07-22T17:59:35.790Z,27.04
2018-07-22T18:02:04.612Z,27.02
2018-07-22T18:04:33.762Z,26.93
2018-07-22T18:07:02.548Z,26.96
2018-07-22T18:09:33.344Z,26.95
2018-07-22T18:12:02.523Z,26.87
2018-07-22T18:14:31.197Z,26.78
2018-07-22T18:17:00.290Z,26.72
2018-07-22T18:19:29.278Z,26.72
2018-07-22T18:21:58.942Z,26.71
2018-07-22T18:24:27.629Z,26.68
2018-07-22T18:26:56.566Z,26.60
2018-07-22T18:29:25.262Z,26.58
2018-07-22T18:31:54.899Z,26.56
2018-07-22T18:34:24.057Z,26.53
2018-07-22T18:36:52.881Z,26.46
2018-07-22T18:39:21.857Z,26.43
2018-07-22T18:41:51.417Z,26.37
2018-07-22T18:44:20.750Z,26.33
2018-07-22T18:46:49.643Z,26.26
2018-07-22T18:49:18.399Z,26.21
2018-07-22T18:51:47.438Z,26.16
2018-07-22T18:54:16.130Z,26.11
2018-07-22T18:56:45.157Z,26.07
2018-07-22T18:59:13.941Z,26.01
2018-07-22T19:01:42.662Z,25.98
2018-07-22T19:04:11.319Z,25.93
2018-07-22T19:06:40.484Z,25.89
2018-07-22T19:09:12.421Z,25.84
2018-07-22T19:11:41.357Z,25.78
2018-07-22T19:14:10.143Z,25.73
2018-07-22T19:16:39.254Z,25.69
2018-07-22T19:19:08.060Z,25.65
2018-07-22T19:21:37.157Z,25.61
2018-07-22T19:24:06.246Z,25.58
2018-07-22T19:26:34.981Z,25.55
2018-07-22T19:29:03.728Z,25.50
2018-07-22T19:31:32.450Z,25.43
2018-07-22T19:34:01.141Z,25.38
2018-07-22T19:36:30.186Z,25.35
2018-07-22T19:38:59.541Z,25.32
2018-07-22T19:41:28.375Z,25.29
2018-07-22T19:43:57.077Z,25.27
2018-07-22T19:46:25.859Z,25.21
2018-07-22T19:48:54.737Z,25.16
2018-07-22T19:51:23.542Z,25.13
2018-07-22T19:53:52.490Z,25.11
2018-07-22T19:56:21.362Z,25.08
2018-07-22T19:58:50.070Z,25.01
2018-07-22T20:01:18.856Z,24.98
2018-07-22T20:03:48.339Z,24.91
2018-07-22T20:06:17.429Z,24.89
2018-07-22T20:08:46.234Z,24.88
2018-07-22T20:11:15.030Z,24.86
2018-07-22T20:13:43.679Z,24.86
2018-07-22T20:16:12.422Z,24.81
2018-07-22T20:18:41.504Z,24.75
2018-07-22T20:21:10.806Z,24.74
2018-07-22T20:23:39.807Z,24.72
2018-07-22T20:26:08.490Z,24.71
2018-07-22T20:28:37.142Z,24.71
2018-07-22T20:31:06.184Z,24.70
2018-07-22T20:33:35.606Z,24.71
2018-07-22T20:36:04.374Z,24.70
2018-07-22T20:38:33.151Z,24.68
2018-07-22T20:41:01.837Z,24.66
2018-07-22T20:43:30.483Z,24.66
2018-07-22T20:45:59.524Z,24.65
2018-07-22T20:48:28.269Z,24.66
2018-07-22T20:50:57.352Z,24.66
2018-07-22T20:53:26.494Z,24.64
2018-07-22T20:55:55.297Z,24.63
2018-07-22T20:58:23.970Z,24.59
2018-07-22T21:00:52.616Z,24.61
2018-07-22T21:03:21.333Z,24.58
2018-07-22T21:05:50.549Z,24.55
2018-07-22T21:08:19.212Z,24.54
2018-07-22T21:10:47.983Z,24.49
2018-07-22T21:13:19.080Z,24.44
2018-07-22T21:15:48.703Z,24.43
2018-07-22T21:18:17.751Z,24.42
2018-07-22T21:20:47.286Z,24.39
2018-07-22T21:23:16.595Z,24.35
2018-07-22T21:25:45.215Z,24.22
2018-07-22T21:28:13.890Z,24.07
2018-07-22T21:30:42.586Z,23.98
2018-07-22T21:33:12.478Z,23.98
2018-07-22T21:35:41.581Z,24.01
2018-07-22T21:38:10.681Z,24.03
2018-07-22T21:40:39.394Z,24.03
2018-07-22T21:43:08.100Z,24.03
2018-07-22T21:45:36.833Z,24.02
2018-07-22T21:48:05.648Z,24.03
2018-07-22T21:50:34.711Z,24.03
2018-07-22T21:53:03.407Z,24.02
2018-07-22T21:55:32.391Z,24.03
2018-07-22T21:58:01.246Z,24.01
2018-07-22T22:00:34.988Z,23.98
2018-07-22T22:03:04.663Z,23.95
2018-07-22T22:05:33.695Z,23.93
2018-07-22T22:08:02.404Z,23.89
2018-07-22T22:10:31.424Z,23.87
2018-07-22T22:13:00.062Z,23.86
2018-07-22T22:15:29.876Z,23.83
2018-07-22T22:17:59.842Z,23.80
2018-07-22T22:20:28.991Z,23.77
2018-07-22T22:22:58.194Z,23.72
2018-07-22T22:25:26.894Z,23.69
2018-07-22T22:27:55.632Z,23.69
2018-07-22T22:30:24.338Z,23.69
2018-07-22T22:32:53.155Z,23.68
2018-07-22T22:35:21.844Z,23.66
2018-07-22T22:37:50.731Z,23.62
2018-07-22T22:40:19.726Z,23.62
2018-07-22T22:42:48.821Z,23.55
2018-07-22T22:45:17.538Z,23.50
2018-07-22T22:47:46.182Z,23.49
2018-07-22T22:50:15.094Z,23.45
2018-07-22T22:52:43.948Z,23.43
2018-07-22T22:55:12.840Z,23.43
2018-07-22T22:57:51.456Z,23.39
2018-07-22T23:00:20.131Z,23.37
2018-07-22T23:02:48.804Z,23.34
2018-07-22T23:05:17.461Z,23.35
2018-07-22T23:07:46.443Z,23.33
2018-07-22T23:10:15.159Z,23.29
2018-07-22T23:12:44.739Z,23.26
2018-07-22T23:15:13.428Z,23.22
2018-07-22T23:17:42.122Z,23.11
2018-07-22T23:20:11.072Z,23.06
2018-07-22T23:22:39.754Z,23.00
2018-07-22T23:25:08.427Z,22.91
2018-07-22T23:27:37.082Z,22.87
2018-07-22T23:30:05.922Z,22.87
2018-07-22T23:32:34.874Z,22.86
2018-07-22T23:35:03.562Z,22.86
2018-07-22T23:37:32.630Z,22.86
2018-07-22T23:40:01.309Z,22.86
2018-07-22T23:42:30.032Z,22.84
2018-07-22T23:44:58.877Z,22.81
2018-07-22T23:47:27.928Z,22.77
2018-07-22T23:49:56.925Z,22.76
2018-07-22T23:52:25.938Z,22.74
2018-07-22T23:54:54.550Z,22.71
2018-07-22T23:57:23.274Z,22.70
2018-07-22T23:59:51.958Z,22.69
